Madrid, Alabama
Current Conditions -  °F | °C
As of 5:53 PM on Wednesday 28 Jan 2015 (Local Time) from KDHN Reporting Station
Clear Clear  
Wind Chill: 50°   Ceiling: Unl
Heat Index: 50°   Visibility: 10mi
Dew Point: 33°   Wind: 5mph
Humidity: 52%   Direction: 120°ESE
Pressure: 30.27"   Gusts: NA
Location:  31.0679°N, 85.3591°W
Report Text: KDHN 282353Z 12004KT 10SM CLR 10/01 A3027 RMK AO2 SLP251 T01000006 10139 20094 53002
Loading
Personal Weather Stations






























Interactive Weather Map New forecast layout! Learn more

10-Day Weather Forecast

Advertisements
Track Severe Weather on mobile